createdAt,value
2019-02-26T00:00:35.634Z,3.10
2019-02-26T00:03:04.731Z,3.00
2019-02-26T00:05:33.411Z,3.00
2019-02-26T00:08:02.686Z,3.00
2019-02-26T00:10:32.311Z,2.90
2019-02-26T00:13:01.580Z,2.90
2019-02-26T00:15:33.280Z,2.90
2019-02-26T00:18:00.317Z,2.90
2019-02-26T00:20:31.278Z,2.80
2019-02-26T00:22:59.836Z,2.80
2019-02-26T00:25:29.250Z,2.80
2019-02-26T00:27:58.657Z,2.70
2019-02-26T00:30:27.248Z,2.70
2019-02-26T00:32:57.717Z,2.70
2019-02-26T00:35:27.682Z,2.70
2019-02-26T00:37:56.370Z,2.60
2019-02-26T00:40:24.911Z,2.60
2019-02-26T00:42:56.546Z,2.60
2019-02-26T00:45:27.010Z,2.60
2019-02-26T00:47:53.853Z,2.60
2019-02-26T00:50:22.385Z,2.50
2019-02-26T00:52:52.366Z,2.50
2019-02-26T00:55:23.156Z,2.40
2019-02-26T00:57:51.434Z,2.40
2019-02-26T01:00:20.114Z,2.30
2019-02-26T01:02:48.682Z,2.20
2019-02-26T01:05:17.661Z,2.20
2019-02-26T01:07:48.927Z,2.10
2019-02-26T01:10:19.226Z,2.00
2019-02-26T01:12:46.948Z,2.00
2019-02-26T01:15:17.133Z,1.90
2019-02-26T01:17:45.866Z,2.00
2019-02-26T01:20:16.414Z,2.00
2019-02-26T01:22:45.560Z,2.00
2019-02-26T01:25:15.896Z,2.00
2019-02-26T01:27:45.989Z,2.10
2019-02-26T01:30:21.156Z,2.10
2019-02-26T01:32:45.960Z,2.20
2019-02-26T01:35:14.566Z,2.20
2019-02-26T01:37:43.066Z,2.20
2019-02-26T01:40:15.622Z,2.20
2019-02-26T01:42:47.301Z,2.20
2019-02-26T01:45:13.785Z,2.20
2019-02-26T01:47:44.910Z,2.20
2019-02-26T01:50:15.643Z,2.20
2019-02-26T01:52:43.539Z,2.10
2019-02-26T01:55:12.817Z,2.10
2019-02-26T01:57:43.405Z,2.10
2019-02-26T02:00:19.065Z,2.10
2019-02-26T02:02:47.890Z,2.20
2019-02-26T02:05:16.442Z,2.20
2019-02-26T02:07:47.214Z,2.10
2019-02-26T02:10:15.891Z,2.10
2019-02-26T02:12:44.462Z,2.10
2019-02-26T02:15:17.930Z,2.00
2019-02-26T02:17:45.314Z,2.00
2019-02-26T02:20:18.611Z,2.00
2019-02-26T02:22:46.611Z,1.90
2019-02-26T02:25:15.530Z,2.00
2019-02-26T02:27:47.602Z,1.90
2019-02-26T02:30:22.960Z,1.90
2019-02-26T02:32:53.741Z,1.90
2019-02-26T02:35:19.090Z,1.90
2019-02-26T02:37:48.153Z,1.80
2019-02-26T02:40:16.687Z,1.80
2019-02-26T02:42:48.406Z,1.90
2019-02-26T02:45:19.643Z,1.90
2019-02-26T02:47:45.630Z,1.90
2019-02-26T02:50:16.155Z,1.90
2019-02-26T02:52:44.911Z,2.00
2019-02-26T02:55:16.303Z,1.90
2019-02-26T02:57:43.649Z,1.90
2019-02-26T03:00:17.122Z,2.00
2019-02-26T03:02:49.735Z,1.90
2019-02-26T03:05:15.950Z,1.90
2019-02-26T03:07:45.842Z,1.80
2019-02-26T03:10:15.281Z,1.80
2019-02-26T03:12:47.686Z,1.80
2019-02-26T03:15:15.322Z,1.70
2019-02-26T03:17:43.859Z,1.70
2019-02-26T03:20:15.719Z,1.60
2019-02-26T03:22:48.759Z,1.60
2019-02-26T03:25:20.498Z,1.60
2019-02-26T03:27:47.061Z,1.60
2019-02-26T03:30:31.729Z,1.60
2019-02-26T03:32:58.054Z,1.60
2019-02-26T03:35:23.426Z,1.60
2019-02-26T03:37:54.786Z,1.60
2019-02-26T03:40:23.981Z,1.50
2019-02-26T03:42:52.672Z,1.40
2019-02-26T03:45:24.884Z,1.40
2019-02-26T03:47:51.434Z,1.40
2019-02-26T03:50:19.995Z,1.30
2019-02-26T03:52:48.548Z,1.30
2019-02-26T03:55:18.815Z,1.30
2019-02-26T03:57:49.958Z,1.30
2019-02-26T04:00:19.861Z,1.30
2019-02-26T04:02:51.365Z,1.30
2019-02-26T04:05:19.157Z,1.30
2019-02-26T04:07:49.897Z,1.20
2019-02-26T04:10:18.115Z,1.30
2019-02-26T04:12:49.018Z,1.30
2019-02-26T04:15:18.869Z,1.30
2019-02-26T04:17:47.423Z,1.20
2019-02-26T04:20:16.430Z,1.20
2019-02-26T04:22:48.975Z,1.10
2019-02-26T04:25:18.010Z,1.10
2019-02-26T04:27:52.922Z,1.10
2019-02-26T04:30:50.253Z,1.10
2019-02-26T04:33:40.707Z,1.10
2019-02-26T04:36:22.371Z,1.00
2019-02-26T04:39:15.837Z,0.90
2019-02-26T04:42:03.338Z,0.90
2019-02-26T04:45:09.022Z,0.90
2019-02-26T04:47:46.687Z,0.90
2019-02-26T04:50:14.967Z,0.80
2019-02-26T04:52:43.687Z,0.80
2019-02-26T04:55:12.204Z,0.80
2019-02-26T04:57:43.393Z,0.80
2019-02-26T05:00:11.180Z,0.80
2019-02-26T05:02:39.705Z,0.80
2019-02-26T05:05:08.713Z,0.80
2019-02-26T05:07:38.426Z,0.80
2019-02-26T05:10:08.184Z,0.90
2019-02-26T05:12:37.905Z,0.90
2019-02-26T05:15:11.614Z,1.00
2019-02-26T05:17:37.574Z,1.00
2019-02-26T05:20:09.721Z,1.00
2019-02-26T05:22:36.969Z,1.00
2019-02-26T05:25:10.691Z,1.00
2019-02-26T05:27:40.038Z,1.00
2019-02-26T05:30:09.857Z,1.00
2019-02-26T05:32:39.531Z,0.90
2019-02-26T05:35:08.073Z,0.90
2019-02-26T05:37:38.203Z,0.90
2019-02-26T05:40:10.376Z,0.90
2019-02-26T05:42:37.795Z,0.90
2019-02-26T05:45:09.190Z,0.90
2019-02-26T05:47:37.108Z,0.90
2019-02-26T05:50:13.335Z,0.90
2019-02-26T05:52:39.290Z,0.90
2019-02-26T05:55:08.374Z,0.90
2019-02-26T05:57:37.018Z,0.90
2019-02-26T06:00:08.491Z,0.90
2019-02-26T06:02:40.167Z,1.00
2019-02-26T06:05:08.966Z,1.00
2019-02-26T06:07:38.847Z,0.90
2019-02-26T06:10:07.996Z,0.80
2019-02-26T06:12:38.971Z,0.80
2019-02-26T06:15:08.021Z,0.80
2019-02-26T06:17:40.575Z,0.80
2019-02-26T06:20:10.992Z,0.70
2019-02-26T06:22:39.641Z,0.70
2019-02-26T06:25:13.945Z,0.70
2019-02-26T06:27:38.653Z,0.70
2019-02-26T06:30:12.291Z,0.70
2019-02-26T06:32:42.662Z,0.70
2019-02-26T06:35:18.565Z,0.70
2019-02-26T06:37:46.157Z,0.60
2019-02-26T06:40:16.702Z,0.70
2019-02-26T06:42:45.279Z,0.70
2019-02-26T06:45:16.492Z,0.60
2019-02-26T06:47:45.759Z,0.60
2019-02-26T06:50:17.911Z,0.60
2019-02-26T06:52:47.576Z,0.60
2019-02-26T06:55:15.401Z,0.60
2019-02-26T06:57:46.884Z,0.60
2019-02-26T07:00:21.260Z,0.60
2019-02-26T07:02:48.797Z,0.60
2019-02-26T07:05:17.313Z,0.60
2019-02-26T07:07:45.882Z,0.70
2019-02-26T07:10:18.486Z,0.70
2019-02-26T07:12:47.676Z,0.70
2019-02-26T07:15:16.189Z,0.80
2019-02-26T07:17:45.999Z,0.80
2019-02-26T07:20:14.900Z,0.90
2019-02-26T07:22:44.105Z,1.00
2019-02-26T07:25:15.973Z,1.00
2019-02-26T07:27:43.861Z,1.00
2019-02-26T07:30:12.783Z,1.00
2019-02-26T07:32:43.184Z,1.10
2019-02-26T07:35:13.769Z,1.20
2019-02-26T07:37:41.819Z,1.20
2019-02-26T07:40:13.770Z,1.20
2019-02-26T07:42:41.930Z,1.30
2019-02-26T07:45:15.331Z,1.30
2019-02-26T07:47:42.548Z,1.40
2019-02-26T07:50:14.309Z,1.40
2019-02-26T07:52:42.246Z,1.50
2019-02-26T07:55:12.023Z,1.60
2019-02-26T07:57:43.637Z,1.70
2019-02-26T08:00:17.315Z,1.90
2019-02-26T08:02:45.878Z,1.90
2019-02-26T08:05:16.187Z,2.00
2019-02-26T08:07:46.651Z,2.10
2019-02-26T08:10:17.413Z,2.20
2019-02-26T08:12:46.804Z,2.40
2019-02-26T08:15:15.777Z,2.50
2019-02-26T08:17:47.869Z,2.60
2019-02-26T08:20:15.134Z,2.70
2019-02-26T08:22:43.713Z,2.80
2019-02-26T08:25:13.490Z,2.90
2019-02-26T08:27:42.068Z,3.00
2019-02-26T08:30:17.846Z,3.10
2019-02-26T08:32:48.549Z,3.20
2019-02-26T08:35:18.079Z,3.30
2019-02-26T08:37:46.038Z,3.50
2019-02-26T08:40:15.113Z,3.60
2019-02-26T08:42:43.684Z,3.70
2019-02-26T08:45:20.412Z,3.80
2019-02-26T08:47:48.009Z,4.00
2019-02-26T08:50:16.629Z,4.00
2019-02-26T08:52:49.413Z,4.10
2019-02-26T08:55:18.439Z,4.20
2019-02-26T08:57:46.102Z,4.30
2019-02-26T09:00:19.358Z,4.50
2019-02-26T09:02:50.608Z,4.60
2019-02-26T09:05:18.107Z,4.70
2019-02-26T09:07:47.647Z,4.90
2019-02-26T09:10:17.856Z,5.00
2019-02-26T09:12:49.077Z,5.10
2019-02-26T09:15:18.637Z,5.30
2019-02-26T09:17:47.242Z,5.40
2019-02-26T09:20:18.014Z,5.60
2019-02-26T09:22:50.262Z,5.70
2019-02-26T09:25:16.769Z,5.90
2019-02-26T09:27:45.303Z,6.00
2019-02-26T09:30:19.220Z,6.10
2019-02-26T09:32:47.938Z,6.20
2019-02-26T09:35:20.375Z,6.40
2019-02-26T09:37:49.973Z,6.50
2019-02-26T09:40:20.247Z,6.70
2019-02-26T09:42:51.738Z,6.80
2019-02-26T09:45:26.915Z,7.00
2019-02-26T09:47:55.873Z,7.10
2019-02-26T09:50:24.595Z,7.20
2019-02-26T09:52:55.766Z,7.30
2019-02-26T09:55:23.427Z,7.50
2019-02-26T09:57:51.972Z,7.70
2019-02-26T10:00:25.319Z,7.90
2019-02-26T10:02:52.118Z,8.00
2019-02-26T10:05:20.821Z,8.20
2019-02-26T10:07:53.671Z,8.30
2019-02-26T10:10:20.771Z,8.40
2019-02-26T10:12:51.246Z,8.50
2019-02-26T10:15:19.698Z,8.60
2019-02-26T10:17:48.233Z,8.70
2019-02-26T10:20:23.230Z,8.80
2019-02-26T10:22:53.172Z,8.90
2019-02-26T10:25:23.344Z,9.00
2019-02-26T10:27:52.005Z,9.10
2019-02-26T10:30:21.415Z,9.20
2019-02-26T10:32:50.026Z,9.30
2019-02-26T10:35:32.436Z,9.40
2019-02-26T10:37:59.723Z,9.50
2019-02-26T10:40:35.064Z,9.60
2019-02-26T10:42:58.673Z,9.70
2019-02-26T10:45:28.381Z,9.80
2019-02-26T10:47:58.914Z,10.00
2019-02-26T10:50:31.711Z,10.10
2019-02-26T10:53:06.558Z,10.20
2019-02-26T10:55:35.431Z,10.30
2019-02-26T10:58:04.117Z,10.40
2019-02-26T11:00:34.333Z,10.60
2019-02-26T11:03:00.937Z,10.60
2019-02-26T11:05:29.618Z,10.70
2019-02-26T11:08:01.428Z,10.80
2019-02-26T11:10:28.490Z,10.90
2019-02-26T11:12:59.533Z,11.00
2019-02-26T11:15:30.265Z,11.10
2019-02-26T11:17:57.649Z,11.20
2019-02-26T11:20:28.358Z,11.30
2019-02-26T11:22:56.367Z,11.40
2019-02-26T11:25:27.310Z,11.50
2019-02-26T11:27:55.135Z,11.60
2019-02-26T11:30:27.238Z,11.60
2019-02-26T11:32:58.765Z,11.70
2019-02-26T11:35:27.255Z,11.80
2019-02-26T11:37:57.760Z,11.90
2019-02-26T11:40:29.698Z,12.00
2019-02-26T11:42:56.846Z,12.10
2019-02-26T11:45:25.583Z,12.20
2019-02-26T11:47:55.779Z,12.20
2019-02-26T11:50:28.109Z,12.30
2019-02-26T11:52:55.580Z,12.40
2019-02-26T11:55:26.191Z,12.50
2019-02-26T11:57:54.348Z,12.60
2019-02-26T12:00:36.311Z,12.70
2019-02-26T12:03:02.137Z,12.70
2019-02-26T12:05:33.449Z,12.80
2019-02-26T12:08:00.907Z,12.90
2019-02-26T12:10:31.842Z,12.90
2019-02-26T12:13:02.232Z,13.00
2019-02-26T12:15:32.783Z,13.00
2019-02-26T12:18:00.525Z,13.10
2019-02-26T12:20:29.098Z,13.10
2019-02-26T12:22:57.573Z,13.10
2019-02-26T12:25:26.122Z,13.10
2019-02-26T12:27:54.702Z,13.20
2019-02-26T12:30:25.965Z,13.20
2019-02-26T12:32:55.169Z,13.20
2019-02-26T12:35:23.896Z,13.20
2019-02-26T12:37:53.875Z,13.20
2019-02-26T12:40:25.271Z,13.20
2019-02-26T12:42:53.355Z,13.20
2019-02-26T12:45:25.607Z,13.20
2019-02-26T12:47:55.245Z,13.20
2019-02-26T12:50:27.256Z,13.30
2019-02-26T12:52:57.132Z,13.40
2019-02-26T12:55:29.644Z,13.40
2019-02-26T12:57:56.478Z,13.40
2019-02-26T13:00:26.277Z,13.50
2019-02-26T13:02:54.974Z,13.60
2019-02-26T13:05:23.554Z,13.70
2019-02-26T13:07:52.110Z,13.70
2019-02-26T13:10:27.539Z,13.80
2019-02-26T13:13:00.236Z,13.90
2019-02-26T13:15:26.372Z,13.90
2019-02-26T13:17:54.939Z,14.00
2019-02-26T13:20:24.824Z,14.00
2019-02-26T13:22:56.306Z,14.10
2019-02-26T13:25:26.684Z,14.10
2019-02-26T13:27:53.899Z,14.10
2019-02-26T13:30:24.177Z,14.20
2019-02-26T13:33:00.429Z,14.20
2019-02-26T13:35:23.078Z,14.30
2019-02-26T13:37:56.978Z,14.30
2019-02-26T13:40:25.791Z,14.40
2019-02-26T13:45:25.800Z,14.50
2019-02-26T13:48:00.845Z,14.50
2019-02-26T13:50:29.760Z,14.50
2019-02-26T13:52:58.330Z,14.50
2019-02-26T13:55:27.018Z,14.50
2019-02-26T13:57:55.653Z,14.50
2019-02-26T14:00:26.704Z,14.60
2019-02-26T14:02:54.493Z,14.60
2019-02-26T14:05:23.039Z,14.60
2019-02-26T14:07:51.845Z,14.70
2019-02-26T14:10:22.804Z,14.80
2019-02-26T14:12:51.375Z,14.80
2019-02-26T14:15:27.687Z,14.90
2019-02-26T14:17:56.253Z,14.90
2019-02-26T14:20:24.859Z,15.00
2019-02-26T14:22:53.370Z,15.00
2019-02-26T14:25:21.909Z,15.10
2019-02-26T14:27:50.481Z,15.10
2019-02-26T14:30:20.318Z,15.20
2019-02-26T14:32:48.895Z,15.30
2019-02-26T14:35:17.439Z,15.30
2019-02-26T14:37:46.006Z,15.40
2019-02-26T14:40:15.694Z,15.40
2019-02-26T14:42:44.314Z,15.50
2019-02-26T14:45:17.333Z,15.60
2019-02-26T14:47:45.882Z,15.60
2019-02-26T14:50:22.083Z,15.70
2019-02-26T14:52:51.707Z,15.80
2019-02-26T14:55:20.246Z,15.80
2019-02-26T14:57:48.856Z,15.90
2019-02-26T15:00:26.517Z,15.90
2019-02-26T15:02:55.404Z,16.00
2019-02-26T15:05:24.073Z,16.00
2019-02-26T15:07:52.765Z,16.10
2019-02-26T15:10:21.402Z,16.10
2019-02-26T15:12:49.940Z,16.10
2019-02-26T15:15:19.342Z,16.10
2019-02-26T15:17:47.902Z,16.10
2019-02-26T15:20:21.466Z,16.10
2019-02-26T15:22:50.022Z,16.10
2019-02-26T15:25:26.330Z,16.10
2019-02-26T15:28:04.269Z,16.10
2019-02-26T15:30:25.293Z,16.00
2019-02-26T15:32:53.854Z,15.90
2019-02-26T15:35:22.418Z,15.80
2019-02-26T15:37:50.961Z,15.80
2019-02-26T15:40:20.737Z,15.80
2019-02-26T15:42:52.330Z,15.80
2019-02-26T15:45:23.951Z,15.80
2019-02-26T15:47:52.458Z,16.10
2019-02-26T15:50:21.576Z,16.70
2019-02-26T15:52:52.632Z,17.40
2019-02-26T15:55:29.241Z,17.90
2019-02-26T15:58:02.996Z,18.00
2019-02-26T16:00:28.317Z,17.70
2019-02-26T16:02:59.305Z,17.30
2019-02-26T16:05:38.154Z,16.90
2019-02-26T16:08:06.941Z,16.60
2019-02-26T16:10:35.497Z,16.20
2019-02-26T16:13:06.598Z,15.90
2019-02-26T16:15:36.405Z,15.70
2019-02-26T16:18:05.019Z,15.50
2019-02-26T16:20:33.655Z,15.30
2019-02-26T16:23:02.209Z,15.10
2019-02-26T16:25:30.768Z,15.00
2019-02-26T16:27:59.264Z,14.80
2019-02-26T16:30:28.760Z,14.70
2019-02-26T16:32:57.309Z,14.60
2019-02-26T16:35:25.869Z,14.50
2019-02-26T16:37:54.430Z,14.40
2019-02-26T16:40:22.990Z,14.20
2019-02-26T16:42:51.529Z,14.10
2019-02-26T16:45:24.646Z,14.00
2019-02-26T16:47:53.258Z,13.90
2019-02-26T16:50:31.589Z,13.80
2019-02-26T16:53:01.021Z,13.70
2019-02-26T16:55:29.963Z,13.60
2019-02-26T16:58:02.327Z,13.50
2019-02-26T17:00:29.966Z,13.30
2019-02-26T17:03:00.968Z,13.20
2019-02-26T17:05:28.865Z,13.10
2019-02-26T17:07:57.679Z,13.00
2019-02-26T17:10:30.240Z,12.90
2019-02-26T17:13:01.759Z,12.80
2019-02-26T17:15:28.918Z,12.70
2019-02-26T17:17:57.466Z,12.60
2019-02-26T17:20:26.486Z,12.50
2019-02-26T17:22:55.120Z,12.40
2019-02-26T17:25:27.313Z,12.30
2019-02-26T17:27:53.957Z,12.10
2019-02-26T17:30:23.922Z,12.00
2019-02-26T17:32:52.925Z,11.80
2019-02-26T17:35:21.486Z,11.60
2019-02-26T17:37:50.029Z,11.50
2019-02-26T17:40:25.955Z,11.40
2019-02-26T17:42:54.522Z,11.40
2019-02-26T17:45:28.247Z,11.30
2019-02-26T17:47:57.491Z,11.20
2019-02-26T17:50:39.825Z,11.10
2019-02-26T17:53:08.749Z,11.00
2019-02-26T17:55:37.321Z,11.00
2019-02-26T17:58:09.880Z,10.90
2019-02-26T18:00:40.239Z,10.80
2019-02-26T18:03:08.779Z,10.70
2019-02-26T18:05:43.430Z,10.70
2019-02-26T18:08:07.532Z,10.50
2019-02-26T18:10:36.711Z,10.40
2019-02-26T18:13:05.423Z,10.30
2019-02-26T18:15:33.982Z,10.10
2019-02-26T18:18:02.527Z,10.10
2019-02-26T18:20:31.071Z,10.00
2019-02-26T18:23:00.720Z,9.90
2019-02-26T18:25:29.391Z,9.90
2019-02-26T18:27:57.951Z,9.80
2019-02-26T18:30:27.839Z,9.60
2019-02-26T18:32:58.835Z,9.50
2019-02-26T18:35:26.577Z,9.40
2019-02-26T18:37:55.137Z,9.40
2019-02-26T18:40:27.975Z,9.30
2019-02-26T18:42:53.883Z,9.20
2019-02-26T18:45:27.829Z,9.10
2019-02-26T18:47:57.506Z,9.00
2019-02-26T18:50:28.743Z,8.80
2019-02-26T18:52:58.174Z,8.80
2019-02-26T18:55:28.435Z,8.70
2019-02-26T18:57:57.406Z,8.60
2019-02-26T19:00:30.812Z,8.50
2019-02-26T19:02:59.372Z,8.50
2019-02-26T19:05:27.914Z,8.40
2019-02-26T19:07:56.477Z,8.30
2019-02-26T19:10:25.094Z,8.30
2019-02-26T19:12:53.662Z,8.10
2019-02-26T19:15:25.277Z,8.00
2019-02-26T19:17:56.809Z,7.90
2019-02-26T19:20:33.894Z,7.80
2019-02-26T19:23:02.462Z,7.60
2019-02-26T19:25:31.009Z,7.60
2019-02-26T19:27:59.574Z,7.50
2019-02-26T19:30:28.122Z,7.40
2019-02-26T19:32:56.682Z,7.40
2019-02-26T19:35:25.235Z,7.40
2019-02-26T19:37:59.098Z,7.40
2019-02-26T19:40:39.762Z,7.50
2019-02-26T19:43:08.335Z,7.40
2019-02-26T19:45:36.945Z,7.40
2019-02-26T19:48:05.511Z,7.30
2019-02-26T19:50:34.127Z,7.20
2019-02-26T19:53:03.173Z,7.10
2019-02-26T19:55:34.446Z,7.00
2019-02-26T19:58:06.386Z,6.90
2019-02-26T20:00:33.266Z,6.90
2019-02-26T20:03:05.038Z,6.90
2019-02-26T20:05:32.090Z,6.80
2019-02-26T20:08:04.987Z,6.70
2019-02-26T20:10:30.957Z,6.70
2019-02-26T20:13:01.342Z,6.60
2019-02-26T20:15:30.539Z,6.60
2019-02-26T20:17:59.171Z,6.60
2019-02-26T20:20:28.060Z,6.50
2019-02-26T20:22:56.670Z,6.50
2019-02-26T20:25:25.206Z,6.40
2019-02-26T20:27:55.157Z,6.40
2019-02-26T20:30:24.768Z,6.30
2019-02-26T20:32:53.302Z,6.20
2019-02-26T20:35:21.841Z,6.20
2019-02-26T20:37:50.406Z,6.10
2019-02-26T20:40:23.106Z,6.00
2019-02-26T20:42:51.736Z,5.90
2019-02-26T20:45:22.680Z,5.80
2019-02-26T20:47:51.451Z,5.80
2019-02-26T20:50:21.344Z,5.70
2019-02-26T20:52:50.406Z,5.60
2019-02-26T20:55:29.655Z,5.60
2019-02-26T20:57:58.221Z,5.60
2019-02-26T21:00:26.850Z,5.50
2019-02-26T21:02:55.490Z,5.50
2019-02-26T21:05:25.051Z,5.50
2019-02-26T21:07:57.982Z,5.40
2019-02-26T21:10:23.894Z,5.30
2019-02-26T21:12:52.456Z,5.30
2019-02-26T21:15:26.693Z,5.30
2019-02-26T21:17:57.735Z,5.20
2019-02-26T21:20:25.441Z,5.20
2019-02-26T21:22:54.928Z,5.10
2019-02-26T21:25:24.126Z,5.10
2019-02-26T21:27:52.690Z,5.10
2019-02-26T21:30:22.367Z,5.00
2019-02-26T21:32:50.921Z,5.00
2019-02-26T21:35:20.657Z,4.90
2019-02-26T21:37:49.826Z,4.90
2019-02-26T21:40:18.362Z,4.80
2019-02-26T21:42:46.907Z,4.80
2019-02-26T21:45:16.561Z,4.70
2019-02-26T21:47:45.055Z,4.70
2019-02-26T21:50:14.567Z,4.70
2019-02-26T21:52:43.342Z,4.60
2019-02-26T21:55:13.246Z,4.60
2019-02-26T21:57:41.803Z,4.50
2019-02-26T22:00:21.023Z,4.50
2019-02-26T22:02:52.002Z,4.50
2019-02-26T22:05:19.753Z,4.50
2019-02-26T22:07:52.109Z,4.50
2019-02-26T22:10:21.867Z,4.50
2019-02-26T22:12:50.882Z,4.50
2019-02-26T22:15:19.571Z,4.40
2019-02-26T22:17:48.130Z,4.40
2019-02-26T22:20:35.537Z,4.40
2019-02-26T22:22:50.553Z,4.30
2019-02-26T22:25:20.178Z,4.30
2019-02-26T22:27:49.105Z,4.20
2019-02-26T22:30:22.023Z,4.20
2019-02-26T22:32:51.449Z,4.10
2019-02-26T22:35:20.190Z,4.10
2019-02-26T22:37:48.693Z,4.10
2019-02-26T22:40:17.324Z,4.00
2019-02-26T22:42:46.100Z,4.00
2019-02-26T22:45:17.333Z,4.00
2019-02-26T22:47:46.029Z,3.90
2019-02-26T22:50:16.158Z,3.90
2019-02-26T22:52:44.817Z,3.90
2019-02-26T22:55:17.588Z,3.80
2019-02-26T22:57:46.305Z,3.80
2019-02-26T23:00:31.350Z,3.80
2019-02-26T23:03:00.426Z,3.80
2019-02-26T23:05:29.557Z,3.80
2019-02-26T23:07:58.093Z,3.80
2019-02-26T23:10:26.756Z,3.70
2019-02-26T23:12:55.337Z,3.70
2019-02-26T23:15:24.165Z,3.70
2019-02-26T23:17:52.865Z,3.60
2019-02-26T23:20:21.693Z,3.60
2019-02-26T23:22:50.476Z,3.60
2019-02-26T23:25:19.119Z,3.60
2019-02-26T23:27:48.737Z,3.50
2019-02-26T23:30:18.357Z,3.50
2019-02-26T23:32:46.925Z,3.50
2019-02-26T23:35:16.148Z,3.40
2019-02-26T23:37:44.810Z,3.40
2019-02-26T23:40:14.109Z,3.40
2019-02-26T23:42:42.846Z,3.30
2019-02-26T23:45:12.490Z,3.30
2019-02-26T23:47:41.310Z,3.30
2019-02-26T23:50:10.886Z,3.30
2019-02-26T23:52:39.599Z,3.30
2019-02-26T23:55:13.082Z,3.20
2019-02-26T23:57:40.457Z,3.20
